Time;durP1;ratioP1;P1;durP2;ratioP2;P2;SDS_P1;SDS_P2;PMS_P1;PMS_P2;Temp;Humidity;BMP_temperature;BMP_pressure;BME280_temperature;BME280_humidity;BME280_pressure;Samples;Min_cycle;Max_cycle;Signal;HPM_P1;HPM_P2
2022/09/15 00:02:16;;;;;;;5.13;2.40;;;14.60;99.90;;;;;;5094921;28;20454;-77
2022/09/15 00:04:42;;;;;;;3.77;2.20;;;14.60;99.90;;;;;;5094817;28;20403;-73
2022/09/15 00:07:08;;;;;;;2.20;1.80;;;14.60;99.90;;;;;;5093943;28;21014;-77
2022/09/15 00:09:34;;;;;;;5.37;3.60;;;14.70;99.90;;;;;;5094958;28;20416;-72
2022/09/15 00:12:01;;;;;;;3.87;1.77;;;14.70;99.90;;;;;;5094639;28;20469;-73
2022/09/15 00:14:27;;;;;;;2.90;1.90;;;14.60;99.90;;;;;;5094670;28;20418;-77
2022/09/15 00:16:52;;;;;;;2.60;2.10;;;14.70;99.90;;;;;;5093265;28;20876;-73
2022/09/15 00:19:18;;;;;;;3.10;2.33;;;14.70;99.90;;;;;;5094393;28;20781;-77
2022/09/15 00:21:44;;;;;;;3.93;2.20;;;14.70;99.90;;;;;;5094390;28;20193;-74
2022/09/15 00:24:10;;;;;;;2.17;1.80;;;14.60;99.90;;;;;;5094205;28;20465;-76
2022/09/15 00:26:36;;;;;;;2.33;1.87;;;14.70;99.90;;;;;;5075500;28;20408;-73
2022/09/15 00:29:02;;;;;;;2.70;1.50;;;14.60;99.90;;;;;;5094228;28;20197;-74
2022/09/15 00:31:30;;;;;;;3.00;1.70;;;14.60;99.90;;;;;;5094345;28;20400;-77
2022/09/15 00:34:01;;;;;;;4.23;2.10;;;14.60;99.90;;;;;;5094006;28;20407;-73
2022/09/15 00:36:27;;;;;;;4.00;1.90;;;14.50;99.90;;;;;;5093539;28;20396;-74
2022/09/15 00:38:53;;;;;;;2.43;2.23;;;14.50;99.90;;;;;;5094052;28;20447;-77
2022/09/15 00:41:21;;;;;;;9.40;2.20;;;14.50;99.90;;;;;;5094018;28;20400;-77
2022/09/15 00:43:58;;;;;;;4.10;1.87;;;14.40;99.90;;;;;;5093958;28;20415;-77
2022/09/15 00:46:31;;;;;;;1.70;1.60;;;14.30;99.90;;;;;;5093353;28;20403;-76
2022/09/15 00:49:00;;;;;;;4.33;2.20;;;14.30;99.90;;;;;;5093819;28;20467;-77
2022/09/15 00:51:43;;;;;;;4.23;2.83;;;14.30;99.90;;;;;;5093528;28;20487;-72
2022/09/15 00:54:18;;;;;;;1.77;1.67;;;14.30;99.90;;;;;;5093545;28;20479;-77
2022/09/15 00:56:48;;;;;;;3.37;2.23;;;14.30;99.90;;;;;;5092913;28;20399;-73
2022/09/15 00:59:19;;;;;;;4.80;2.07;;;14.30;99.90;;;;;;5075491;28;20484;-77
2022/09/15 01:01:48;;;;;;;2.13;1.93;;;14.20;99.90;;;;;;5093482;28;20500;-74
2022/09/15 01:04:15;;;;;;;7.13;1.80;;;14.10;99.90;;;;;;5093601;28;20416;-72
2022/09/15 01:06:49;;;;;;;2.00;1.90;;;14.00;99.90;;;;;;5092939;28;20433;-77
2022/09/15 01:09:31;;;;;;;3.73;1.93;;;14.10;99.90;;;;;;5093196;28;20439;-72
2022/09/15 01:11:57;;;;;;;3.10;1.80;;;14.10;99.90;;;;;;5093239;28;20549;-74
2022/09/15 01:14:23;;;;;;;1.43;1.20;;;14.10;99.90;;;;;;5093605;28;20396;-73
2022/09/15 01:17:08;;;;;;;4.47;1.60;;;14.00;99.90;;;;;;5092948;28;20419;-73
2022/09/15 01:19:55;;;;;;;5.10;1.90;;;14.00;99.90;;;;;;5075225;28;20190;-77
2022/09/15 01:22:47;;;;;;;2.53;1.70;;;14.00;99.90;;;;;;5093329;28;20942;-76
2022/09/15 01:25:29;;;;;;;3.83;1.90;;;14.00;99.90;;;;;;5093446;28;20403;-77
2022/09/15 01:28:32;;;;;;;2.33;1.70;;;14.10;99.90;;;;;;5092032;28;20542;-77
2022/09/15 01:31:12;;;;;;;3.97;1.50;;;14.10;99.90;;;;;;5093343;28;20474;-77
2022/09/15 01:34:00;;;;;;;6.87;1.70;;;14.00;99.90;;;;;;5093295;28;20399;-71
2022/09/15 01:36:44;;;;;;;6.87;1.73;;;14.00;99.90;;;;;;5092594;28;20402;-75
2022/09/15 01:39:24;;;;;;;2.20;1.30;;;14.00;99.90;;;;;;5092949;28;20442;-77
2022/09/15 01:41:58;;;;;;;4.30;2.00;;;13.80;99.90;;;;;;5093173;28;20387;-75
2022/09/15 01:44:30;;;;;;;6.70;1.40;;;13.70;99.90;;;;;;5074376;28;20407;-75
2022/09/15 01:47:04;;;;;;;1.77;1.13;;;13.50;99.90;;;;;;5092615;28;20835;-72
2022/09/15 01:49:38;;;;;;;5.90;1.57;;;13.50;99.90;;;;;;5092901;28;20419;-73
2022/09/15 01:52:05;;;;;;;2.40;1.33;;;13.50;99.90;;;;;;5092841;28;20479;-76
2022/09/15 01:54:52;;;;;;;2.13;1.40;;;13.50;99.90;;;;;;5092944;28;20420;-75
2022/09/15 01:57:21;;;;;;;1.77;1.40;;;13.50;99.90;;;;;;5092317;28;20414;-72
2022/09/15 02:00:02;;;;;;;;;;;;;;;;;;;;;
2022/09/15 02:02:41;;;;;;;1.80;1.33;;;13.50;99.90;;;;;;5092755;28;20412;-75
2022/09/15 02:05:19;;;;;;;3.13;1.20;;;13.50;99.90;;;;;;5096715;28;20410;-75
2022/09/15 02:08:30;;;;;;;4.13;1.20;;;13.50;99.90;;;;;;5096271;28;20485;-76
2022/09/15 02:11:27;;;;;;;2.30;2.03;;;13.40;99.90;;;;;;5015025;28;20428;-76
2022/09/15 02:14:12;;;;;;;2.47;1.33;;;13.40;99.90;;;;;;5096078;28;20497;-76
2022/09/15 02:16:42;;;;;;;1.30;1.00;;;13.40;99.90;;;;;;5077953;28;20938;-71
2022/09/15 02:19:34;;;;;;;1.50;1.13;;;13.40;99.90;;;;;;5096744;28;20423;-76
2022/09/15 02:22:40;;;;;;;4.97;1.40;;;13.40;99.90;;;;;;5078250;28;20464;-73
2022/09/15 02:25:15;;;;;;;1.47;1.13;;;13.30;99.90;;;;;;5051585;28;20442;-75
2022/09/15 02:27:46;;;;;;;6.80;1.30;;;13.40;99.90;;;;;;5096084;28;20490;-76
2022/09/15 02:30:15;;;;;;;4.07;1.20;;;13.40;99.90;;;;;;5078407;28;20986;-76
2022/09/15 02:32:57;;;;;;;3.80;1.40;;;13.40;99.90;;;;;;5096456;28;20419;-76
2022/09/15 02:35:27;;;;;;;1.50;1.00;;;13.40;99.90;;;;;;5096480;28;20399;-73
2022/09/15 02:37:54;;;;;;;3.50;1.23;;;13.30;99.90;;;;;;5095643;28;20450;-76
2022/09/15 02:40:20;;;;;;;2.87;1.60;;;13.30;99.90;;;;;;5078700;28;20423;-73
2022/09/15 02:42:59;;;;;;;1.10;1.00;;;13.30;99.90;;;;;;5077982;28;20464;-72
2022/09/15 02:49:13;;;;;;;1.63;1.00;;;13.30;99.90;;;;;;4994364;28;20463;-76
2022/09/15 02:51:38;;;;;;;2.33;1.13;;;13.20;99.90;;;;;;5041714;28;20517;-76
2022/09/15 02:54:04;;;;;;;1.80;1.23;;;13.20;99.90;;;;;;5095921;28;20475;-76
2022/09/15 02:56:30;;;;;;;1.40;1.23;;;13.10;99.90;;;;;;5095393;28;20174;-76
2022/09/15 02:58:56;;;;;;;1.60;1.20;;;13.00;99.90;;;;;;5096042;28;20411;-72
2022/09/15 03:01:30;;;;;;;3.10;1.13;;;13.00;99.90;;;;;;5077494;28;20419;-76
2022/09/15 03:03:56;;;;;;;7.13;1.27;;;13.00;99.90;;;;;;5095958;28;20245;-76
2022/09/15 03:06:23;;;;;;;5.27;1.00;;;13.10;99.90;;;;;;5095277;28;20419;-73
2022/09/15 03:08:54;;;;;;;1.50;1.40;;;13.10;99.90;;;;;;5095483;28;20809;-76
2022/09/15 03:11:22;;;;;;;6.03;1.30;;;13.10;99.90;;;;;;5095861;28;20396;-72
2022/09/15 03:13:53;;;;;;;5.17;2.17;;;13.10;99.90;;;;;;5095741;28;20400;-76
2022/09/15 03:16:19;;;;;;;2.30;1.37;;;13.20;99.90;;;;;;5093868;28;20445;-76
2022/09/15 03:18:47;;;;;;;7.53;1.30;;;13.30;99.90;;;;;;5094768;28;20427;-72
2022/09/15 03:21:14;;;;;;;2.97;1.10;;;13.30;99.90;;;;;;5095738;28;20439;-72
2022/09/15 03:23:40;;;;;;;1.67;1.07;;;13.30;99.90;;;;;;5095669;28;20399;-73
2022/09/15 03:26:08;;;;;;;2.30;1.20;;;13.30;99.90;;;;;;5095018;28;20399;-77
2022/09/15 03:28:35;;;;;;;1.90;1.10;;;13.30;99.90;;;;;;5095351;28;20512;-72
2022/09/15 03:31:04;;;;;;;4.73;1.60;;;13.30;99.90;;;;;;5095485;28;20400;-74
2022/09/15 03:33:30;;;;;;;1.23;1.13;;;13.20;99.90;;;;;;5095324;28;20392;-76
2022/09/15 03:35:56;;;;;;;3.20;1.10;;;13.10;99.90;;;;;;5094646;28;20494;-72
2022/09/15 03:38:23;;;;;;;3.10;0.83;;;13.10;99.90;;;;;;5094828;28;20975;-73
2022/09/15 03:41:04;;;;;;;5.17;1.23;;;13.10;99.90;;;;;;5095230;28;20399;-76
2022/09/15 03:43:31;;;;;;;2.80;1.67;;;13.00;99.90;;;;;;5095189;28;20414;-72
2022/09/15 03:45:57;;;;;;;2.87;1.70;;;13.00;99.90;;;;;;5077603;28;20419;-73
2022/09/15 03:48:24;;;;;;;1.87;1.40;;;13.00;99.90;;;;;;5076461;28;20462;-72
2022/09/15 03:50:50;;;;;;;3.30;1.47;;;12.90;99.90;;;;;;5095108;28;20403;-73
2022/09/15 03:53:17;;;;;;;3.33;1.03;;;12.90;99.90;;;;;;5095005;28;20884;-77
2022/09/15 03:55:44;;;;;;;7.00;1.10;;;12.90;99.90;;;;;;5094544;28;20407;-73
2022/09/15 03:58:11;;;;;;;2.57;1.23;;;12.80;99.90;;;;;;5094421;28;20425;-76
2022/09/15 04:00:38;;;;;;;1.73;1.33;;;12.80;99.90;;;;;;5094874;28;20400;-76
2022/09/15 04:03:04;;;;;;;2.13;1.40;;;12.70;99.90;;;;;;5094723;28;20475;-74
2022/09/15 04:05:29;;;;;;;2.27;1.40;;;12.60;99.90;;;;;;5094903;28;20490;-72
2022/09/15 04:07:55;;;;;;;3.87;1.10;;;12.60;99.90;;;;;;5093897;28;21052;-71
2022/09/15 04:10:23;;;;;;;2.20;1.57;;;12.60;99.90;;;;;;5094821;28;20162;-76
2022/09/15 04:12:51;;;;;;;1.60;1.10;;;12.60;99.90;;;;;;5094502;28;20404;-75
2022/09/15 04:15:21;;;;;;;3.00;2.13;;;12.60;99.90;;;;;;5093979;28;20371;-72
2022/09/15 04:17:47;;;;;;;3.90;1.77;;;12.60;99.90;;;;;;5093826;28;20431;-72
2022/09/15 04:20:14;;;;;;;2.30;1.53;;;12.70;99.90;;;;;;5094361;28;20399;-76
2022/09/15 04:22:40;;;;;;;7.20;1.40;;;12.60;99.90;;;;;;5094526;28;20434;-76
2022/09/15 04:25:08;;;;;;;3.37;1.63;;;12.60;99.90;;;;;;5094334;28;20423;-76
2022/09/15 04:27:35;;;;;;;5.47;1.30;;;12.60;99.90;;;;;;5075052;28;20554;-72
2022/09/15 04:30:01;;;;;;;9.10;1.77;;;12.50;99.90;;;;;;5094199;28;20449;-72
2022/09/15 04:32:28;;;;;;;6.50;1.80;;;12.50;99.90;;;;;;5094049;28;20449;-76
2022/09/15 04:34:54;;;;;;;3.00;1.57;;;12.60;99.90;;;;;;5094032;28;20402;-72
2022/09/15 04:37:21;;;;;;;2.13;1.93;;;12.60;99.90;;;;;;5093484;28;20427;-72
2022/09/15 04:39:47;;;;;;;3.57;1.30;;;12.50;99.90;;;;;;5093910;28;20443;-73
2022/09/15 04:42:13;;;;;;;1.40;1.30;;;12.50;99.90;;;;;;5094120;28;20940;-72
2022/09/15 04:44:39;;;;;;;2.90;1.43;;;12.50;99.90;;;;;;5093970;28;20396;-72
2022/09/15 04:47:06;;;;;;;4.07;1.73;;;12.50;99.90;;;;;;5093316;28;20422;-76
2022/09/15 04:49:32;;;;;;;2.50;1.50;;;12.50;99.90;;;;;;5093914;28;20410;-72
2022/09/15 04:51:58;;;;;;;4.47;2.97;;;12.60;99.90;;;;;;5093364;28;20433;-72
2022/09/15 04:54:24;;;;;;;7.83;1.63;;;12.60;99.90;;;;;;5093712;28;20487;-75
2022/09/15 04:56:49;;;;;;;3.23;1.50;;;12.70;99.90;;;;;;5093284;28;20216;-76
2022/09/15 04:59:17;;;;;;;4.93;1.80;;;12.60;99.90;;;;;;5093640;28;20189;-76
2022/09/15 05:01:44;;;;;;;7.13;2.50;;;12.60;99.90;;;;;;5093628;28;20169;-73
2022/09/15 05:04:10;;;;;;;10.20;3.20;;;12.60;99.90;;;;;;5093794;28;20402;-71
2022/09/15 05:06:37;;;;;;;3.03;1.73;;;12.60;99.90;;;;;;5092984;28;20410;-71
2022/09/15 05:09:04;;;;;;;5.33;1.63;;;12.70;99.90;;;;;;5093212;28;20457;-72
2022/09/15 05:11:31;;;;;;;6.10;1.80;;;12.70;99.90;;;;;;5093187;28;20404;-73
2022/09/15 05:13:57;;;;;;;2.33;1.30;;;12.70;99.90;;;;;;5075286;28;20433;-71
2022/09/15 05:16:26;;;;;;;5.10;1.73;;;12.70;99.90;;;;;;5074770;28;20410;-75
2022/09/15 05:18:54;;;;;;;2.80;1.57;;;12.70;99.90;;;;;;5093540;28;20475;-71
2022/09/15 05:21:21;;;;;;;2.90;1.77;;;12.80;99.90;;;;;;5093464;28;20499;-76
2022/09/15 05:23:49;;;;;;;3.27;2.20;;;12.80;99.90;;;;;;5093327;28;20804;-72
2022/09/15 05:26:17;;;;;;;2.30;1.23;;;12.90;99.90;;;;;;5092770;28;20892;-71
2022/09/15 05:28:43;;;;;;;6.00;1.63;;;12.80;99.90;;;;;;5074304;28;20524;-73
2022/09/15 05:34:57;;;;;;;2.33;1.53;;;12.80;99.90;;;;;;5030886;28;20509;-75
2022/09/15 05:37:23;;;;;;;4.27;1.20;;;12.70;99.90;;;;;;5039640;28;20408;-75
2022/09/15 05:39:48;;;;;;;8.97;1.60;;;12.70;99.90;;;;;;5077272;28;20451;-73
2022/09/15 05:42:14;;;;;;;3.20;1.60;;;12.70;99.90;;;;;;5075041;28;20218;-73
2022/09/15 05:44:40;;;;;;;4.97;2.23;;;12.80;99.90;;;;;;5092732;28;20162;-71
2022/09/15 05:47:06;;;;;;;3.73;1.40;;;12.80;99.90;;;;;;5074029;28;20412;-73
2022/09/15 05:49:32;;;;;;;5.30;2.00;;;12.70;99.90;;;;;;5074976;28;20578;-76
2022/09/15 05:51:59;;;;;;;3.53;1.60;;;12.70;99.90;;;;;;5092993;28;20164;-72
2022/09/15 05:54:26;;;;;;;3.13;2.00;;;12.70;99.90;;;;;;5093079;28;20416;-71
2022/09/15 05:56:51;;;;;;;2.80;1.50;;;12.70;99.90;;;;;;5092503;28;20400;-71
2022/09/15 05:59:17;;;;;;;3.00;1.50;;;12.70;99.90;;;;;;5092877;28;20430;-75
2022/09/15 06:01:43;;;;;;;4.53;1.30;;;12.70;99.90;;;;;;5075065;28;20316;-71
2022/09/15 06:04:48;;;;;;;4.03;1.60;;;12.80;99.90;;;;;;5092684;28;20184;-74
2022/09/15 06:07:15;;;;;;;2.43;1.40;;;12.80;99.90;;;;;;5010154;28;20195;-75
2022/09/15 06:09:41;;;;;;;1.77;1.30;;;12.90;99.90;;;;;;5010983;28;20430;-75
2022/09/15 06:12:07;;;;;;;4.20;1.77;;;12.90;99.90;;;;;;5049782;28;20404;-70
2022/09/15 06:14:32;;;;;;;5.37;1.47;;;13.10;99.90;;;;;;5092854;28;20402;-70
2022/09/15 06:16:58;;;;;;;1.13;1.03;;;13.20;99.90;;;;;;5092356;28;20188;-75
2022/09/15 06:19:24;;;;;;;10.70;1.93;;;13.30;99.90;;;;;;5074885;28;20882;-71
2022/09/15 06:21:50;;;;;;;7.03;2.80;;;13.40;99.90;;;;;;5092762;28;20940;-75
2022/09/15 06:24:16;;;;;;;4.77;2.37;;;13.40;99.90;;;;;;5074454;28;20174;-70
2022/09/15 06:26:42;;;;;;;7.53;1.80;;;13.40;99.90;;;;;;5073733;28;20411;-70
2022/09/15 06:29:10;;;;;;;3.30;1.27;;;13.40;99.90;;;;;;5092551;28;20198;-71
2022/09/15 06:31:37;;;;;;;6.73;1.00;;;13.40;99.90;;;;;;5074780;28;20419;-71
2022/09/15 06:34:04;;;;;;;4.80;1.97;;;13.40;99.90;;;;;;5074541;28;20423;-75
2022/09/15 06:36:30;;;;;;;8.43;1.50;;;13.40;99.90;;;;;;5073728;28;20498;-71
2022/09/15 06:38:57;;;;;;;2.20;1.23;;;13.50;99.90;;;;;;5092561;28;20485;-75
2022/09/15 06:41:29;;;;;;;6.10;1.37;;;13.60;99.90;;;;;;5074293;28;20418;-75
2022/09/15 06:43:58;;;;;;;1.87;1.37;;;13.80;99.90;;;;;;5092140;28;20934;-72
2022/09/15 06:46:25;;;;;;;4.80;1.40;;;13.70;99.90;;;;;;5091707;28;20408;-75
2022/09/15 06:48:52;;;;;;;4.43;1.50;;;13.80;99.90;;;;;;5074364;28;20544;-70
2022/09/15 06:51:21;;;;;;;3.77;2.17;;;13.80;99.90;;;;;;5096213;28;20471;-70
2022/09/15 06:53:47;;;;;;;2.03;1.30;;;13.90;99.90;;;;;;5078025;28;20415;-74
2022/09/15 06:56:18;;;;;;;1.70;1.27;;;13.90;96.10;;;;;;5077266;28;20464;-71
2022/09/15 06:58:45;;;;;;;1.63;1.13;;;14.00;99.20;;;;;;5096000;28;20431;-71
2022/09/15 07:01:13;;;;;;;7.03;1.40;;;14.00;93.60;;;;;;5077045;28;20411;-71
2022/09/15 07:03:42;;;;;;;1.63;1.30;;;13.80;93.60;;;;;;5078201;28;20407;-76
2022/09/15 07:06:08;;;;;;;1.90;1.00;;;13.80;93.50;;;;;;5093797;28;20407;-75
2022/09/15 07:08:35;;;;;;;2.80;1.93;;;13.90;93.10;;;;;;5095759;28;21072;-71
2022/09/15 07:11:01;;;;;;;5.77;1.67;;;13.90;93.40;;;;;;5095995;28;20420;-72
2022/09/15 07:13:27;;;;;;;4.03;1.20;;;13.90;93.50;;;;;;5094870;28;20494;-76
2022/09/15 07:15:56;;;;;;;2.40;1.50;;;14.00;93.30;;;;;;5095627;28;20542;-71
2022/09/15 07:18:22;;;;;;;2.63;1.33;;;14.10;84.00;;;;;;5095197;28;20196;-74
2022/09/15 07:20:49;;;;;;;2.10;1.10;;;14.00;69.80;;;;;;5094960;28;20888;-75
2022/09/15 07:23:15;;;;;;;4.33;1.37;;;14.10;76.10;;;;;;5095603;28;20486;-74
2022/09/15 07:25:42;;;;;;;5.20;1.80;;;14.20;70.40;;;;;;5095539;28;20462;-71
2022/09/15 07:28:10;;;;;;;2.27;1.63;;;14.20;43.10;;;;;;5094357;28;20534;-74
2022/09/15 07:30:36;;;;;;;3.93;1.70;;;14.30;43.80;;;;;;5095381;28;20427;-71
2022/09/15 07:33:01;;;;;;;2.03;1.83;;;14.30;26.20;;;;;;5077270;28;20916;-69
2022/09/15 07:35:27;;;;;;;5.40;1.40;;;14.50;31.00;;;;;;5095418;28;20687;-74
2022/09/15 07:37:53;;;;;;;2.43;1.23;;;14.60;12.50;;;;;;5076626;28;20213;-73
2022/09/15 07:40:20;;;;;;;6.80;1.20;;;14.70;13.80;;;;;;5076984;28;20256;-69
2022/09/15 07:42:46;;;;;;;2.80;1.87;;;14.70;4.50;;;;;;5077189;28;20407;-75
2022/09/15 07:45:12;;;;;;;2.50;1.40;;;14.80;12.50;;;;;;5077114;28;20438;-73
2022/09/15 07:47:38;;;;;;;2.33;1.33;;;14.90;21.70;;;;;;5076341;28;20452;-75
2022/09/15 07:50:05;;;;;;;3.77;1.27;;;15.00;6.90;;;;;;5095255;28;20466;-75
2022/09/15 07:52:31;;;;;;;2.13;1.03;;;15.10;1.00;;;;;;5076946;28;20422;-70
2022/09/15 07:54:57;;;;;;;3.03;1.23;;;15.20;15.20;;;;;;5094929;28;20408;-74
2022/09/15 07:57:23;;;;;;;3.90;1.43;;;15.20;1.00;;;;;;5094509;28;20494;-70
2022/09/15 07:59:49;;;;;;;2.47;1.50;;;15.30;1.00;;;;;;5094179;28;20189;-75
2022/09/15 08:02:19;;;;;;;6.27;1.70;;;15.40;1.00;;;;;;5076061;28;20177;-73
2022/09/15 08:04:49;;;;;;;4.30;1.37;;;15.50;1.00;;;;;;5076713;28;20732;-75
2022/09/15 08:07:38;;;;;;;3.93;1.60;;;15.50;1.00;;;;;;5093963;28;21098;-75
2022/09/15 08:10:05;;;;;;;4.70;1.50;;;15.40;1.00;;;;;;5083594;28;20442;-75
2022/09/15 08:12:31;;;;;;;8.17;2.03;;;15.50;1.00;;;;;;5076777;28;20414;-69
2022/09/15 08:14:56;;;;;;;4.40;1.20;;;15.60;1.00;;;;;;5076275;28;20412;-71
2022/09/15 08:17:22;;;;;;;7.33;2.27;;;15.60;1.00;;;;;;5093209;28;20208;-75
2022/09/15 08:19:48;;;;;;;5.90;1.63;;;15.60;1.00;;;;;;5094451;28;20193;-70
2022/09/15 08:22:14;;;;;;;3.53;3.10;;;15.70;1.00;;;;;;5094598;28;20446;-70
2022/09/15 08:24:40;;;;;;;2.60;1.10;;;15.80;1.00;;;;;;5076680;28;20185;-76
2022/09/15 08:27:06;;;;;;;3.27;1.40;;;16.00;1.00;;;;;;5075396;28;20173;-75
2022/09/15 08:29:32;;;;;;;2.80;1.13;;;16.20;1.00;;;;;;5094283;28;20185;-74
2022/09/15 08:31:58;;;;;;;2.70;1.53;;;16.20;1.00;;;;;;5094333;28;20916;-76
2022/09/15 08:34:25;;;;;;;6.20;1.70;;;16.30;1.00;;;;;;5094316;28;20411;-75
2022/09/15 08:36:50;;;;;;;7.37;1.40;;;16.30;1.00;;;;;;5093403;28;20399;-75
2022/09/15 08:39:33;;;;;;;2.73;1.60;;;16.40;1.00;;;;;;5093499;28;20466;-75
2022/09/15 08:42:01;;;;;;;4.77;1.50;;;16.40;1.00;;;;;;5094162;28;20171;-69
2022/09/15 08:44:58;;;;;;;4.00;1.40;;;16.50;1.00;;;;;;5094025;28;20404;-69
2022/09/15 08:47:39;;;;;;;2.37;1.00;;;16.60;1.00;;;;;;5093230;28;20447;-69
2022/09/15 08:50:31;;;;;;;8.13;1.43;;;16.70;1.00;;;;;;5093964;28;20954;-69
2022/09/15 08:53:08;;;;;;;2.70;1.37;;;16.90;1.00;;;;;;5093861;28;20721;-74
2022/09/15 08:55:49;;;;;;;2.40;1.07;;;17.20;1.00;;;;;;5075574;28;20920;-73
2022/09/15 08:58:30;;;;;;;11.23;4.97;;;17.10;1.00;;;;;;5074902;28;20439;-73
2022/09/15 09:01:09;;;;;;;5.43;1.67;;;17.30;1.00;;;;;;5093855;28;20499;-73
2022/09/15 09:03:44;;;;;;;7.37;1.67;;;17.50;1.00;;;;;;5075313;28;20426;-75
2022/09/15 09:06:27;;;;;;;1.40;1.10;;;17.50;1.00;;;;;;5093118;28;20453;-75
2022/09/15 09:09:13;;;;;;;4.50;1.83;;;17.40;1.00;;;;;;5093664;28;20443;-71
2022/09/15 09:12:09;;;;;;;4.87;1.10;;;17.30;1.00;;;;;;5075093;28;20510;-69
2022/09/15 09:15:06;;;;;;;3.67;1.63;;;17.40;1.00;;;;;;5092871;28;20442;-75
2022/09/15 09:17:55;;;;;;;7.37;1.63;;;17.60;1.00;;;;;;5091759;28;20407;-74
2022/09/15 09:20:46;;;;;;;4.43;1.10;;;17.60;1.00;;;;;;5075057;28;20411;-69
2022/09/15 09:23:20;;;;;;;1.93;1.00;;;17.50;1.00;;;;;;5093167;28;20595;-69
2022/09/15 09:25:48;;;;;;;2.63;1.00;;;17.40;1.00;;;;;;5092947;28;20545;-76
2022/09/15 09:28:34;;;;;;;4.47;1.50;;;17.30;1.00;;;;;;5092578;28;20467;-69
2022/09/15 09:31:08;;;;;;;3.37;1.53;;;17.20;1.00;;;;;;5075008;28;20415;-75
2022/09/15 09:33:42;;;;;;;4.97;1.03;;;17.50;1.00;;;;;;5092977;28;20407;-69
2022/09/15 09:36:10;;;;;;;4.10;1.10;;;17.60;1.00;;;;;;5091974;28;21002;-74
2022/09/15 09:38:42;;;;;;;2.73;1.17;;;17.80;1.00;;;;;;5092306;28;20909;-68
2022/09/15 09:41:15;;;;;;;2.13;0.90;;;18.30;1.00;;;;;;5074960;28;20416;-68
2022/09/15 09:43:45;;;;;;;7.73;1.63;;;18.70;1.00;;;;;;5092736;28;20488;-75
2022/09/15 09:46:15;;;;;;;3.10;1.00;;;18.60;1.00;;;;;;5092331;28;20923;-73
2022/09/15 09:49:14;;;;;;;2.13;1.10;;;18.10;1.00;;;;;;5092717;28;20459;-74
2022/09/15 09:52:01;;;;;;;1.20;1.10;;;17.70;1.00;;;;;;5059527;28;20498;-71
2022/09/15 09:54:30;;;;;;;2.30;1.00;;;17.30;1.00;;;;;;5092221;28;20411;-74
2022/09/15 09:57:16;;;;;;;3.60;1.23;;;17.00;1.00;;;;;;5092007;28;20419;-73
2022/09/15 09:59:44;;;;;;;2.83;1.80;;;16.70;1.00;;;;;;5092553;28;20443;-69
2022/09/15 10:02:10;;;;;;;1.53;0.83;;;16.70;1.00;;;;;;5074904;28;20469;-74
2022/09/15 10:04:37;;;;;;;1.80;1.30;;;17.20;1.00;;;;;;5092954;28;20408;-74
2022/09/15 10:07:03;;;;;;;2.57;1.00;;;17.60;1.00;;;;;;5091986;28;20173;-73
2022/09/15 10:09:52;;;;;;;4.10;1.07;;;18.10;1.00;;;;;;5074695;28;20558;-73
2022/09/15 10:12:42;;;;;;;2.57;1.00;;;18.60;1.00;;;;;;5082039;28;20815;-68
2022/09/15 10:15:22;;;;;;;2.60;1.77;;;19.00;1.00;;;;;;5092604;28;20549;-73
2022/09/15 10:17:50;;;;;;;4.57;1.43;;;19.00;1.00;;;;;;5091946;28;20404;-73
2022/09/15 10:20:44;;;;;;;2.13;1.30;;;19.10;1.00;;;;;;5092589;28;20399;-74
2022/09/15 10:23:16;;;;;;;2.80;1.40;;;19.50;1.00;;;;;;5092692;28;20410;-74
2022/09/15 10:25:53;;;;;;;2.80;1.30;;;20.20;1.00;;;;;;5077429;28;20453;-69
2022/09/15 10:28:24;;;;;;;4.73;1.23;;;20.60;1.00;;;;;;5095878;28;20508;-73
2022/09/15 10:31:28;;;;;;;1.87;1.10;;;20.30;1.00;;;;;;5096881;28;20407;-75
2022/09/15 10:33:54;;;;;;;5.40;1.23;;;20.10;1.00;;;;;;5044071;28;20407;-70
2022/09/15 10:36:27;;;;;;;4.73;1.07;;;19.70;1.00;;;;;;5077686;28;20414;-69
2022/09/15 10:38:59;;;;;;;3.97;1.27;;;19.20;1.00;;;;;;5078240;28;20513;-70
2022/09/15 10:41:30;;;;;;;2.50;0.83;;;18.90;1.00;;;;;;5096682;28;20395;-75
2022/09/15 10:44:22;;;;;;;1.30;0.90;;;18.70;1.00;;;;;;5096228;28;20399;-75
2022/09/15 10:47:41;;;;;;;7.43;1.60;;;18.40;1.00;;;;;;5095830;28;20400;-74
2022/09/15 10:50:29;;;;;;;1.10;0.90;;;18.80;1.00;;;;;;5041885;28;20419;-72
2022/09/15 10:53:02;;;;;;;8.20;1.30;;;19.30;1.00;;;;;;5077844;28;20473;-69
2022/09/15 10:56:09;;;;;;;1.93;1.10;;;19.60;1.00;;;;;;5096102;28;20407;-69
2022/09/15 10:59:33;;;;;;;7.17;1.10;;;19.40;1.00;;;;;;5095764;28;20423;-78
2022/09/15 11:05:30;;;;;;;2.70;1.00;;;20.10;1.00;;;;;;5095885;28;20469;-74
2022/09/15 11:08:23;;;;;;;1.73;1.20;;;20.50;1.00;;;;;;5098493;28;20511;-74
2022/09/15 11:11:12;;;;;;;2.23;1.03;;;20.80;1.00;;;;;;5076159;28;20420;-75
2022/09/15 11:14:03;;;;;;;2.77;1.30;;;20.50;1.00;;;;;;5057516;28;20400;-73
2022/09/15 11:16:43;;;;;;;1.20;0.80;;;19.60;1.00;;;;;;5075345;28;20417;-69
2022/09/15 11:19:31;;;;;;;2.33;1.00;;;18.60;1.00;;;;;;5075451;28;20420;-69
2022/09/15 11:22:14;;;;;;;1.27;1.17;;;17.90;1.00;;;;;;5057582;28;20416;-69
2022/09/15 11:24:57;;;;;;;2.40;0.90;;;17.40;1.00;;;;;;5074000;28;20436;-75
2022/09/15 11:27:40;;;;;;;1.10;0.70;;;17.10;1.00;;;;;;5055898;28;20500;-75
2022/09/15 11:30:19;;;;;;;1.63;0.83;;;16.70;1.00;;;;;;5074992;28;20470;-75
2022/09/15 11:33:28;;;;;;;1.47;1.00;;;16.60;1.00;;;;;;5075295;28;20396;-76
2022/09/15 11:36:12;;;;;;;5.30;1.03;;;16.60;1.00;;;;;;5073723;28;20405;-75
2022/09/15 11:39:00;;;;;;;3.70;1.17;;;16.80;1.00;;;;;;5057643;28;20460;-75
2022/09/15 11:41:40;;;;;;;4.13;1.10;;;17.00;1.00;;;;;;5077543;28;20497;-75
2022/09/15 11:44:12;;;;;;;3.43;1.30;;;17.40;1.00;;;;;;5101501;28;20790;-76
2022/09/15 11:47:02;;;;;;;5.70;1.17;;;17.60;1.00;;;;;;5096505;28;20409;-76
2022/09/15 11:49:51;;;;;;;3.03;1.70;;;17.90;1.00;;;;;;5115509;28;20454;-75
2022/09/15 11:52:29;;;;;;;17.07;1.73;;;18.20;1.00;;;;;;5115542;28;20406;-69
2022/09/15 11:55:21;;;;;;;4.60;1.07;;;18.20;1.00;;;;;;5097305;28;20509;-70
2022/09/15 11:58:02;;;;;;;1.97;1.30;;;18.50;1.00;;;;;;5114603;28;20438;-75
2022/09/15 12:00:29;;;;;;;6.13;1.60;;;18.70;1.00;;;;;;5115289;28;20921;-75
2022/09/15 12:03:23;;;;;;;5.87;1.23;;;18.60;1.00;;;;;;5115218;28;20399;-75
2022/09/15 12:05:53;;;;;;;2.67;1.00;;;18.80;1.00;;;;;;5096383;28;20427;-76
2022/09/15 12:08:39;;;;;;;4.33;1.60;;;18.70;1.00;;;;;;5096397;28;20446;-69
2022/09/15 12:11:17;;;;;;;2.80;1.03;;;19.00;1.00;;;;;;5115108;28;20433;-70
2022/09/15 12:14:06;;;;;;;13.00;1.50;;;19.20;1.00;;;;;;5115093;28;20404;-70
2022/09/15 12:16:36;;;;;;;2.00;1.10;;;19.50;1.00;;;;;;5096049;28;20402;-76
2022/09/15 12:19:25;;;;;;;3.17;1.10;;;19.50;1.00;;;;;;5096422;28;20434;-69
2022/09/15 12:22:00;;;;;;;2.23;0.80;;;19.60;1.00;;;;;;5114481;28;20498;-76
2022/09/15 12:24:38;;;;;;;4.53;1.07;;;19.90;1.00;;;;;;5114712;28;20418;-76
2022/09/15 12:27:08;;;;;;;5.73;1.27;;;20.20;1.00;;;;;;5095734;28;20506;-69
2022/09/15 12:29:38;;;;;;;4.63;1.27;;;20.20;1.00;;;;;;5096464;28;20985;-71
2022/09/15 12:32:32;;;;;;;7.00;3.13;;;20.40;1.00;;;;;;5096543;28;20418;-76
2022/09/15 12:35:17;;;;;;;2.40;1.00;;;20.50;1.00;;;;;;5114530;28;20445;-75
2022/09/15 12:37:59;;;;;;;3.70;1.17;;;21.10;1.00;;;;;;5095719;28;20424;-69
2022/09/15 12:40:36;;;;;;;3.73;1.17;;;20.90;1.00;;;;;;5114207;28;20775;-69
2022/09/15 12:43:21;;;;;;;11.03;1.77;;;20.90;1.00;;;;;;5096267;28;20417;-76
2022/09/15 12:46:00;;;;;;;4.20;1.57;;;21.30;1.00;;;;;;5114294;28;20398;-76
2022/09/15 12:48:32;;;;;;;7.87;1.23;;;21.70;1.00;;;;;;5113913;28;20442;-69
2022/09/15 12:51:09;;;;;;;4.27;1.27;;;21.70;1.00;;;;;;5114346;28;20387;-75
2022/09/15 12:53:52;;;;;;;3.77;0.93;;;21.90;1.00;;;;;;5080716;28;20807;-73
2022/09/15 12:56:27;;;;;;;1.00;0.70;;;22.00;1.00;;;;;;5072194;28;20396;-73
2022/09/15 12:59:01;;;;;;;1.70;0.90;;;21.40;1.00;;;;;;5073360;28;20574;-73
2022/09/15 13:01:27;;;;;;;2.17;0.80;;;21.20;1.00;;;;;;5073232;28;20423;-74
2022/09/15 13:03:59;;;;;;;3.57;1.40;;;20.60;1.00;;;;;;5073424;28;20757;-70
2022/09/15 13:06:36;;;;;;;2.03;0.90;;;20.60;1.00;;;;;;5071321;28;20415;-74
2022/09/15 13:09:03;;;;;;;2.70;0.83;;;20.70;1.00;;;;;;5072867;28;20967;-70
2022/09/15 13:11:38;;;;;;;2.80;1.20;;;20.50;1.00;;;;;;5073428;28;20401;-73
2022/09/15 13:14:07;;;;;;;3.13;1.07;;;20.20;1.00;;;;;;5072773;28;20411;-69
2022/09/15 13:16:47;;;;;;;3.10;0.97;;;20.20;1.00;;;;;;5071745;28;20420;-75
2022/09/15 13:19:21;;;;;;;1.93;0.87;;;20.40;1.00;;;;;;5071815;28;20428;-68
2022/09/15 13:22:00;;;;;;;7.23;1.47;;;20.60;1.00;;;;;;5055031;28;20404;-74
2022/09/15 13:24:54;;;;;;;2.57;1.20;;;21.00;1.00;;;;;;5072917;28;20455;-75
2022/09/15 13:27:51;;;;;;;1.53;1.10;;;21.00;1.00;;;;;;5072147;28;20936;-74
2022/09/15 13:30:20;;;;;;;3.80;1.27;;;21.20;1.00;;;;;;5050923;28;20421;-69
2022/09/15 13:32:46;;;;;;;3.47;2.20;;;21.30;1.00;;;;;;5083480;28;20555;-74
2022/09/15 13:35:22;;;;;;;5.50;2.40;;;21.50;1.00;;;;;;5075202;28;20495;-73
2022/09/15 13:38:25;;;;;;;5.37;1.00;;;21.50;1.00;;;;;;5084673;28;20178;-70